Burlington, CO (80807)

5:50 PM MDT on August 31, 2015 (GMT -0600)
Burlington | | Change Station
CLOSE
Current Station
Personal Weather Station
Location: Burlington, CO
Elevation: 4167 ft
Nearby Weather Stations

Elev 4167 ft 39.30 °N, 102.26 °W | Updated 46 seconds ago

Clear
Clear
93.4 °F
Feels Like 89 °F
N
3.8
Wind Variable Wind from SE
Gusts 6.0 mph

Today
High -- | Low -- °F
--% Chance of Precip.
Yesterday
High -- | Low -- °F
Precip. -- in
6:16 AM 7:21 PM
Waning Gibbous, 93% visible
Pressure 29.80 in
Visibility 10.0 miles
Clouds Clear
Heat Index 89 °F
Dew Point 31 °F
Humidity 11%
Rainfall 0.00 in
Snow Depth Not available.
UV 3 out of 12
Pollen 10.40 out of 12
Air Quality Not available.
Flu Activity Not available.
METAR KITR 312253Z AUTO 11005KT 10SM CLR 32/09 A2996 RMK AO2 SLP089 T03220094
Pressure 29.80 in
Visibility 10.0 miles
Clouds Clear
Heat Index 89 °F
Dew Point 31 °F
Humidity 11%
Rainfall 0.00 in
Snow Depth Not available.
UV 3 out of 12
Pollen 10.40 out of 12
Air Quality Not available.
Flu Activity Not available.
METAR KITR 312253Z AUTO 11005KT 10SM CLR 32/09 A2996 RMK AO2 SLP089 T03220094

10-Day Weather Forecast

×

Almanac

Astronomy

Aug. 31, 2015 Rise Set
Actual Time
Civil Twilight
Nautical Twilight
Astronomical Twilight
Moon
Length of Visible Light
Length of Day
Tomorrow will be .
, % of the Moon is Illuminated

Today's Extremes

State Highs State Lows

Community

WunderPhotos

Upload Photos

1,851,395 photos uploaded!

WunderBlogs® & News

Nearby

Air Quality

  Air Quality AQ Index Pollutant
Not available.

Snow Depth

Station Depth Elevation

Earthquake Activity

City Distance Mag. Time & Date
Minimum magnitude displayed is 2.5.

Coastal Water Temperatures

Place Temperature

Stations

Nearby Weather Stations

Station Location Temp. Windchill Dew Point Humidity Wind Precip. Elev Updated Type